Time;durP1;ratioP1;P1;durP2;ratioP2;P2;SDS_P1;SDS_P2;PMS_P1;PMS_P2;Temp;Humidity;BMP_temperature;BMP_pressure;BME280_temperature;BME280_humidity;BME280_pressure;Samples;Min_cycle;Max_cycle;Signal;HPM_P1;HPM_P2
2023/09/11 00:01:10;;;;;;;12.43;10.43;;;15.10;99.90;;;;;;5075973;28;20031;-63
2023/09/11 00:03:35;;;;;;;12.32;11.02;;;15.10;99.90;;;;;;5094301;28;20032;-63
2023/09/11 00:06:05;;;;;;;12.90;11.40;;;15.10;99.90;;;;;;5094181;28;20458;-63
2023/09/11 00:08:31;;;;;;;13.20;11.68;;;15.10;99.90;;;;;;5094039;28;20077;-64
2023/09/11 00:10:58;;;;;;;11.75;10.60;;;15.10;99.90;;;;;;5075850;28;20028;-63
2023/09/11 00:13:24;;;;;;;12.60;11.13;;;15.00;99.90;;;;;;5093924;28;20040;-64
2023/09/11 00:15:50;;;;;;;13.65;11.55;;;15.00;99.90;;;;;;5075802;28;20031;-64
2023/09/11 00:18:15;;;;;;;16.38;11.35;;;15.00;99.90;;;;;;5093712;28;20020;-64
2023/09/11 00:20:41;;;;;;;12.88;11.02;;;15.00;99.90;;;;;;5093602;28;20020;-64
2023/09/11 00:23:08;;;;;;;19.50;11.52;;;15.00;99.90;;;;;;5094371;28;20427;-63
2023/09/11 00:25:34;;;;;;;16.08;11.38;;;15.00;99.90;;;;;;5094290;28;20020;-64
2023/09/11 00:28:00;;;;;;;12.63;10.90;;;15.00;99.90;;;;;;5093867;28;20066;-63
2023/09/11 00:30:26;;;;;;;14.25;12.05;;;14.90;99.90;;;;;;5075691;28;20024;-63
2023/09/11 00:32:51;;;;;;;15.45;12.02;;;14.90;99.90;;;;;;5075609;28;20107;-63
2023/09/11 00:35:17;;;;;;;12.40;11.10;;;14.90;99.90;;;;;;5093790;28;20035;-63
2023/09/11 00:37:43;;;;;;;14.73;11.70;;;14.90;99.90;;;;;;5093471;28;20020;-63
2023/09/11 00:40:08;;;;;;;14.90;10.90;;;14.80;99.90;;;;;;5093411;28;20035;-64
2023/09/11 00:42:34;;;;;;;13.45;12.05;;;14.90;99.90;;;;;;5093665;28;20051;-63
2023/09/11 00:45:00;;;;;;;14.15;12.45;;;14.90;99.90;;;;;;5093700;28;20458;-63
2023/09/11 00:47:25;;;;;;;12.63;11.32;;;14.90;99.90;;;;;;5093414;28;20024;-64
2023/09/11 00:49:53;;;;;;;16.23;12.15;;;14.90;99.90;;;;;;5076662;28;20032;-64
2023/09/11 00:52:19;;;;;;;14.05;10.35;;;14.90;99.90;;;;;;5094640;28;20044;-64
2023/09/11 00:54:45;;;;;;;12.65;11.30;;;14.90;99.90;;;;;;5076489;28;20491;-64
2023/09/11 00:57:10;;;;;;;12.05;10.50;;;14.90;99.90;;;;;;5077393;28;20026;-64
2023/09/11 00:59:36;;;;;;;12.60;11.02;;;14.80;99.90;;;;;;5078502;28;20024;-65
2023/09/11 01:02:02;;;;;;;15.48;13.13;;;14.80;99.90;;;;;;5096213;28;20046;-63
2023/09/11 01:04:28;;;;;;;16.25;11.93;;;14.70;99.90;;;;;;5094393;28;20463;-64
2023/09/11 01:06:54;;;;;;;13.13;11.52;;;14.70;99.90;;;;;;5076434;28;20063;-63
2023/09/11 01:09:20;;;;;;;14.32;11.77;;;14.70;99.90;;;;;;5093883;28;20089;-63
2023/09/11 01:11:46;;;;;;;12.25;11.00;;;14.70;99.90;;;;;;5093210;28;20086;-63
2023/09/11 01:14:12;;;;;;;14.55;11.82;;;14.60;99.90;;;;;;5093402;28;20036;-63
2023/09/11 01:16:53;;;;;;;13.23;11.77;;;14.60;99.90;;;;;;5093191;28;20074;-63
2023/09/11 01:19:45;;;;;;;16.80;12.02;;;14.60;99.90;;;;;;5075438;28;20020;-63
2023/09/11 01:22:35;;;;;;;13.63;11.20;;;14.60;99.90;;;;;;5045948;28;20036;-63
2023/09/11 01:25:47;;;;;;;14.60;12.88;;;14.60;99.90;;;;;;5075305;28;20389;-63
2023/09/11 01:28:18;;;;;;;14.05;12.65;;;14.50;99.90;;;;;;5093522;28;20028;-63
2023/09/11 01:30:45;;;;;;;14.13;12.15;;;14.50;99.90;;;;;;5093300;28;20028;-63
2023/09/11 01:33:11;;;;;;;13.82;12.40;;;14.50;99.90;;;;;;5078695;28;20036;-63
2023/09/11 01:35:37;;;;;;;15.32;12.30;;;14.50;99.90;;;;;;5096780;28;20031;-63
2023/09/11 01:38:03;;;;;;;16.75;11.93;;;14.50;99.90;;;;;;5096911;28;20028;-64
2023/09/11 01:40:34;;;;;;;17.15;12.55;;;14.50;99.90;;;;;;5096901;28;20050;-63
2023/09/11 01:43:05;;;;;;;13.95;12.38;;;14.50;99.90;;;;;;5096841;28;20089;-63
2023/09/11 01:45:33;;;;;;;13.43;11.93;;;14.50;99.90;;;;;;5078673;28;20063;-64
2023/09/11 01:48:01;;;;;;;15.20;12.45;;;14.50;99.90;;;;;;5096459;28;20461;-63
2023/09/11 01:50:29;;;;;;;14.27;12.20;;;14.50;99.90;;;;;;5096715;28;20032;-64
2023/09/11 01:52:55;;;;;;;15.20;12.77;;;14.50;99.90;;;;;;5097001;28;20054;-63
2023/09/11 01:55:21;;;;;;;15.27;12.23;;;14.50;99.90;;;;;;5096658;28;20035;-63
2023/09/11 01:57:46;;;;;;;17.00;12.93;;;14.40;99.90;;;;;;5095257;28;20028;-64
2023/09/11 02:00:12;;;;;;;13.88;12.32;;;14.40;99.90;;;;;;5078357;28;20076;-64
2023/09/11 02:02:39;;;;;;;13.10;11.75;;;14.40;99.90;;;;;;5096173;28;20100;-64
2023/09/11 02:05:05;;;;;;;15.40;12.85;;;14.40;99.90;;;;;;5096395;28;20066;-63
2023/09/11 02:07:30;;;;;;;16.15;12.25;;;14.40;99.90;;;;;;5078232;28;20059;-64
2023/09/11 02:09:56;;;;;;;15.60;12.32;;;14.30;99.90;;;;;;5078423;28;20075;-63
2023/09/11 02:12:24;;;;;;;19.23;12.98;;;14.30;99.90;;;;;;5096398;28;20385;-64
2023/09/11 02:14:50;;;;;;;15.13;12.53;;;14.30;99.90;;;;;;5096068;28;20024;-64
2023/09/11 02:17:15;;;;;;;15.88;12.68;;;14.30;99.90;;;;;;5078013;28;20063;-63
2023/09/11 02:19:42;;;;;;;13.23;11.85;;;14.30;99.90;;;;;;5096607;28;20040;-63
2023/09/11 02:22:07;;;;;;;13.68;12.05;;;14.30;99.90;;;;;;5077874;28;20484;-64
2023/09/11 02:24:33;;;;;;;13.50;12.10;;;14.30;99.90;;;;;;5096038;28;20032;-63
2023/09/11 02:26:58;;;;;;;15.90;11.82;;;14.30;99.90;;;;;;5095685;28;20021;-64
2023/09/11 02:29:24;;;;;;;15.57;12.38;;;14.30;99.90;;;;;;5095799;28;20104;-63
2023/09/11 02:31:50;;;;;;;13.65;12.23;;;14.30;99.90;;;;;;5095938;28;20056;-63
2023/09/11 02:34:15;;;;;;;18.20;12.40;;;14.30;99.90;;;;;;5095519;28;20115;-63
2023/09/11 02:36:41;;;;;;;12.50;10.98;;;14.30;99.90;;;;;;5095872;28;20396;-64
2023/09/11 02:39:06;;;;;;;16.00;12.73;;;14.30;99.90;;;;;;5077695;28;20477;-63
2023/09/11 02:41:33;;;;;;;13.70;12.10;;;14.20;99.90;;;;;;5095681;28;20107;-63
2023/09/11 02:43:58;;;;;;;14.70;12.75;;;14.20;99.90;;;;;;5094948;28;20070;-64
2023/09/11 02:46:24;;;;;;;13.05;10.80;;;14.20;99.90;;;;;;5077443;28;20064;-64
2023/09/11 02:48:49;;;;;;;13.43;12.02;;;14.20;99.90;;;;;;5077445;28;20046;-64
2023/09/11 02:51:17;;;;;;;13.88;12.10;;;14.20;99.90;;;;;;5077506;28;20020;-64
2023/09/11 02:53:43;;;;;;;14.00;12.55;;;14.10;99.90;;;;;;5077656;28;20381;-63
2023/09/11 02:56:09;;;;;;;13.68;11.98;;;14.10;99.90;;;;;;5095993;28;20040;-64
2023/09/11 02:58:35;;;;;;;17.70;13.43;;;14.10;99.90;;;;;;5077208;28;20020;-64
2023/09/11 03:01:04;;;;;;;13.90;12.45;;;14.10;99.90;;;;;;5095292;28;20020;-64
2023/09/11 03:03:31;;;;;;;14.85;12.55;;;14.10;99.90;;;;;;5095125;28;20036;-64
2023/09/11 03:06:01;;;;;;;17.00;11.82;;;14.10;99.90;;;;;;5094963;28;20492;-64
2023/09/11 03:08:27;;;;;;;14.30;12.80;;;14.10;99.90;;;;;;5095418;28;20533;-63
2023/09/11 03:10:53;;;;;;;17.75;13.10;;;14.00;99.90;;;;;;5076950;28;20020;-64
2023/09/11 03:13:19;;;;;;;14.80;13.20;;;14.00;99.90;;;;;;5095311;28;20038;-64
2023/09/11 03:15:45;;;;;;;14.43;12.88;;;14.00;99.90;;;;;;5076692;28;20111;-64
2023/09/11 03:18:11;;;;;;;14.90;12.88;;;13.90;99.90;;;;;;5094698;28;20031;-63
2023/09/11 03:20:38;;;;;;;15.55;13.13;;;13.90;99.90;;;;;;5095255;28;20055;-63
2023/09/11 03:23:03;;;;;;;16.48;13.73;;;13.90;99.90;;;;;;5077161;28;20377;-63
2023/09/11 03:25:35;;;;;;;15.35;12.82;;;13.90;99.90;;;;;;5077377;28;20042;-63
2023/09/11 03:28:01;;;;;;;14.15;12.65;;;13.90;99.90;;;;;;5076683;28;20381;-63
2023/09/11 03:30:27;;;;;;;21.38;13.07;;;13.90;99.90;;;;;;5095025;28;20024;-63
2023/09/11 03:32:53;;;;;;;16.95;13.55;;;13.80;99.90;;;;;;5076528;28;20035;-64
2023/09/11 03:35:18;;;;;;;19.98;13.93;;;13.90;99.90;;;;;;5094388;28;20031;-63
2023/09/11 03:37:44;;;;;;;14.27;12.77;;;13.90;99.90;;;;;;5094583;28;20113;-63
2023/09/11 03:40:13;;;;;;;19.17;13.27;;;13.90;99.90;;;;;;5076368;28;20024;-64
2023/09/11 03:42:39;;;;;;;16.73;13.27;;;13.90;99.90;;;;;;5076018;28;20028;-63
2023/09/11 03:45:07;;;;;;;15.40;12.80;;;13.90;99.90;;;;;;5094640;28;20122;-63
2023/09/11 03:47:33;;;;;;;15.02;13.40;;;13.90;99.90;;;;;;5076170;28;20063;-63
2023/09/11 03:49:58;;;;;;;19.30;13.13;;;13.90;99.90;;;;;;5093788;28;20028;-64
2023/09/11 03:52:24;;;;;;;16.05;12.38;;;13.90;99.90;;;;;;5093154;28;20164;-63
2023/09/11 03:54:49;;;;;;;15.20;13.38;;;13.90;99.90;;;;;;5093324;28;20063;-64
2023/09/11 03:57:15;;;;;;;20.08;13.65;;;13.80;99.90;;;;;;5094180;28;20034;-63
2023/09/11 03:59:41;;;;;;;15.13;12.52;;;13.80;99.90;;;;;;5076140;28;20032;-64
2023/09/11 04:02:06;;;;;;;16.90;12.65;;;13.80;99.90;;;;;;5093884;28;20020;-64
2023/09/11 04:04:32;;;;;;;15.73;12.23;;;13.70;99.90;;;;;;5094155;28;20060;-63
2023/09/11 04:06:58;;;;;;;25.70;14.30;;;13.70;99.90;;;;;;5094078;28;20028;-63
2023/09/11 04:09:23;;;;;;;17.50;13.48;;;13.70;99.90;;;;;;5075586;28;20031;-64
2023/09/11 04:11:49;;;;;;;15.50;13.18;;;13.70;99.90;;;;;;5075837;28;20054;-63
2023/09/11 04:14:15;;;;;;;17.02;12.98;;;13.70;99.90;;;;;;5075766;28;20123;-63
2023/09/11 04:16:41;;;;;;;14.60;12.98;;;13.60;99.90;;;;;;5093793;28;20016;-63
2023/09/11 04:19:07;;;;;;;14.13;12.63;;;13.60;99.90;;;;;;5093687;28;20466;-63
2023/09/11 04:21:33;;;;;;;17.88;13.27;;;13.60;99.90;;;;;;5093855;28;20111;-64
2023/09/11 04:23:58;;;;;;;17.05;13.60;;;13.60;99.90;;;;;;5093824;28;20377;-64
2023/09/11 04:26:24;;;;;;;14.55;13.00;;;13.60;99.90;;;;;;5075871;28;20111;-63
2023/09/11 04:28:50;;;;;;;17.25;13.75;;;13.60;99.90;;;;;;5093803;28;20024;-63
2023/09/11 04:31:16;;;;;;;20.23;13.73;;;13.50;99.90;;;;;;5093432;28;20028;-63
2023/09/11 04:33:41;;;;;;;18.75;13.90;;;13.50;99.90;;;;;;5093539;28;20035;-63
2023/09/11 04:36:07;;;;;;;16.88;14.50;;;13.50;99.90;;;;;;5075765;28;20441;-63
2023/09/11 04:38:33;;;;;;;15.68;13.02;;;13.50;99.90;;;;;;5075609;28;20067;-64
2023/09/11 04:40:58;;;;;;;22.67;15.60;;;13.50;99.90;;;;;;5075535;28;20047;-63
2023/09/11 04:43:24;;;;;;;28.30;16.17;;;13.50;99.90;;;;;;5093565;28;20032;-64
2023/09/11 04:45:50;;;;;;;22.15;14.43;;;13.60;99.90;;;;;;5076307;28;20034;-63
2023/09/11 04:48:16;;;;;;;19.25;14.65;;;13.60;99.90;;;;;;5095382;28;20107;-64
2023/09/11 04:50:42;;;;;;;18.40;13.68;;;13.70;99.90;;;;;;5093546;28;20020;-64
2023/09/11 04:53:07;;;;;;;14.93;13.32;;;13.70;99.90;;;;;;5094159;28;20102;-64
2023/09/11 04:55:33;;;;;;;18.92;14.00;;;13.70;99.90;;;;;;5093424;28;20036;-60
2023/09/11 04:57:58;;;;;;;19.77;12.65;;;13.70;99.90;;;;;;5093639;28;20047;-61
2023/09/11 05:00:26;;;;;;;19.20;14.23;;;13.70;99.90;;;;;;5093749;28;20382;-60
2023/09/11 05:02:51;;;;;;;17.83;14.15;;;13.80;99.90;;;;;;5093654;28;20036;-61
2023/09/11 05:05:17;;;;;;;14.95;13.02;;;13.80;99.90;;;;;;5093796;28;20038;-60
2023/09/11 05:07:43;;;;;;;16.00;12.57;;;13.90;99.90;;;;;;5097193;28;20077;-60
2023/09/11 05:10:09;;;;;;;15.95;13.73;;;13.90;99.90;;;;;;5097261;28;20048;-60
2023/09/11 05:12:35;;;;;;;15.80;13.25;;;13.90;99.90;;;;;;5096323;28;20028;-60
2023/09/11 05:15:01;;;;;;;14.77;12.55;;;14.00;99.90;;;;;;5097495;28;20043;-61
2023/09/11 05:17:27;;;;;;;16.42;12.88;;;14.00;99.90;;;;;;5096988;28;20035;-61
2023/09/11 05:19:52;;;;;;;22.85;14.25;;;14.10;99.90;;;;;;5097319;28;20024;-60
2023/09/11 05:22:18;;;;;;;16.77;12.70;;;14.20;99.90;;;;;;5078781;28;20031;-60
2023/09/11 05:24:44;;;;;;;16.65;13.23;;;14.30;99.90;;;;;;5096725;28;20074;-60
2023/09/11 05:27:10;;;;;;;15.93;11.98;;;14.40;99.90;;;;;;5096669;28;20434;-60
2023/09/11 05:29:35;;;;;;;18.80;11.57;;;14.60;99.90;;;;;;5097153;28;20024;-60
2023/09/11 05:32:02;;;;;;;14.38;10.75;;;14.90;99.90;;;;;;5096476;28;20107;-60
2023/09/11 05:34:28;;;;;;;14.85;10.75;;;15.10;99.90;;;;;;5096555;28;20400;-61
2023/09/11 05:36:54;;;;;;;19.63;11.25;;;15.30;99.90;;;;;;5078586;28;20035;-60
2023/09/11 05:39:19;;;;;;;12.68;9.80;;;15.40;99.90;;;;;;5078674;28;20020;-60
2023/09/11 05:41:45;;;;;;;15.68;9.77;;;15.60;99.90;;;;;;5096385;28;20028;-60
2023/09/11 05:44:12;;;;;;;11.23;9.10;;;15.80;99.90;;;;;;5096187;28;20330;-61
2023/09/11 05:46:38;;;;;;;12.70;9.32;;;16.00;99.90;;;;;;5078504;28;20111;-61
2023/09/11 05:49:03;;;;;;;13.27;8.88;;;16.20;99.90;;;;;;5078798;28;20518;-60
2023/09/11 05:51:29;;;;;;;12.82;8.82;;;16.50;99.90;;;;;;5078513;28;20047;-61
2023/09/11 05:53:54;;;;;;;9.55;8.32;;;16.70;99.90;;;;;;5097073;28;20032;-61
2023/09/11 05:56:20;;;;;;;9.68;7.95;;;16.90;99.90;;;;;;5095059;28;20485;-61
2023/09/11 05:58:46;;;;;;;14.73;8.63;;;17.00;99.90;;;;;;5096369;28;20066;-60
2023/09/11 06:01:13;;;;;;;10.48;8.20;;;17.30;99.90;;;;;;5095005;28;20103;-60
2023/09/11 06:03:39;;;;;;;10.43;8.15;;;17.70;99.90;;;;;;5078391;28;20042;-60
2023/09/11 06:06:05;;;;;;;11.82;8.15;;;18.00;99.90;;;;;;5096095;28;20110;-60
2023/09/11 06:08:32;;;;;;;14.70;7.90;;;18.30;99.90;;;;;;5096291;28;20028;-60
2023/09/11 06:10:59;;;;;;;11.95;8.40;;;18.70;99.90;;;;;;5078142;28;20059;-60
2023/09/11 06:13:25;;;;;;;10.68;6.97;;;18.80;99.90;;;;;;5096532;28;20032;-61
2023/09/11 06:15:51;;;;;;;10.45;7.43;;;19.00;99.90;;;;;;5095869;28;20020;-61
2023/09/11 06:18:16;;;;;;;11.07;7.68;;;19.20;99.90;;;;;;5077331;28;20060;-61
2023/09/11 06:20:42;;;;;;;12.30;7.40;;;19.40;99.90;;;;;;5077577;28;20062;-61
2023/09/11 06:23:10;;;;;;;8.90;7.63;;;19.40;99.90;;;;;;5096046;28;20030;-65
2023/09/11 06:25:35;;;;;;;7.97;7.00;;;19.50;99.90;;;;;;5098081;28;20024;-65
2023/09/11 06:28:01;;;;;;;10.35;6.95;;;19.80;99.90;;;;;;5097682;28;20028;-65
2023/09/11 06:30:27;;;;;;;10.88;7.13;;;20.00;99.90;;;;;;5096126;28;20032;-64
2023/09/11 06:32:53;;;;;;;7.72;6.80;;;20.30;99.90;;;;;;5095983;28;20020;-64
2023/09/11 06:35:18;;;;;;;9.32;6.65;;;20.50;99.90;;;;;;5095822;28;20115;-62
2023/09/11 06:37:44;;;;;;;10.15;6.40;;;20.70;99.90;;;;;;5095968;28;20489;-64
2023/09/11 06:40:10;;;;;;;10.07;6.85;;;21.10;99.90;;;;;;5096066;28;20020;-64
2023/09/11 06:42:36;;;;;;;9.30;7.00;;;21.50;99.90;;;;;;5096010;28;20081;-64
2023/09/11 06:45:02;;;;;;;9.55;6.40;;;21.90;99.90;;;;;;5094984;28;20040;-64
2023/09/11 06:47:28;;;;;;;13.20;6.28;;;22.40;99.90;;;;;;5082576;28;20028;-62
2023/09/11 06:49:54;;;;;;;10.57;6.43;;;22.70;99.90;;;;;;5103642;28;20035;-63
2023/09/11 06:52:20;;;;;;;9.95;5.85;;;23.00;99.90;;;;;;5103485;28;20052;-63
2023/09/11 06:54:46;;;;;;;8.20;5.88;;;23.10;99.90;;;;;;5083728;28;20028;-63
2023/09/11 06:57:11;;;;;;;7.15;6.50;;;23.40;99.90;;;;;;5103547;28;20039;-62
2023/09/11 06:59:37;;;;;;;8.52;6.30;;;23.60;99.90;;;;;;5099043;28;20024;-62
2023/09/11 07:02:03;;;;;;;9.15;6.05;;;23.90;99.90;;;;;;5096774;28;20032;-62
2023/09/11 07:04:30;;;;;;;13.82;6.15;;;24.10;99.90;;;;;;5078109;28;20482;-62
2023/09/11 07:06:56;;;;;;;6.72;5.90;;;24.20;99.90;;;;;;5077275;28;20036;-62
2023/09/11 07:09:23;;;;;;;6.88;6.25;;;24.70;99.90;;;;;;5076893;28;20020;-62
2023/09/11 07:11:50;;;;;;;7.72;6.20;;;24.90;99.90;;;;;;5095015;28;20024;-62
2023/09/11 07:14:23;;;;;;;12.13;6.45;;;25.20;99.70;;;;;;5095379;28;20031;-62
2023/09/11 07:16:49;;;;;;;7.20;6.35;;;25.60;99.30;;;;;;5076736;28;20470;-62
2023/09/11 07:19:15;;;;;;;6.43;5.72;;;26.00;98.10;;;;;;5076440;28;20032;-62
2023/09/11 07:21:41;;;;;;;6.30;5.70;;;26.20;97.20;;;;;;5094606;28;20031;-62
2023/09/11 07:24:07;;;;;;;13.00;7.32;;;26.40;96.70;;;;;;5095044;28;20123;-62
2023/09/11 07:26:33;;;;;;;9.40;5.93;;;26.70;97.40;;;;;;5094847;28;20059;-63
2023/09/11 07:29:02;;;;;;;7.43;5.85;;;27.00;96.10;;;;;;5094034;28;20035;-62
2023/09/11 07:31:28;;;;;;;8.27;6.85;;;27.20;96.50;;;;;;5076409;28;20446;-63
2023/09/11 07:33:54;;;;;;;7.32;6.60;;;27.30;95.60;;;;;;5094808;28;20028;-62
2023/09/11 07:36:20;;;;;;;7.20;6.63;;;27.50;94.80;;;;;;5076520;28;20063;-63
2023/09/11 07:38:46;;;;;;;8.32;6.53;;;27.60;93.80;;;;;;5076419;28;20028;-63
2023/09/11 07:41:14;;;;;;;11.00;6.38;;;27.80;93.30;;;;;;5094582;28;20074;-63
2023/09/11 07:43:39;;;;;;;10.23;6.88;;;27.70;93.40;;;;;;5094262;28;20028;-63
2023/09/11 07:46:05;;;;;;;8.85;7.05;;;27.80;93.30;;;;;;5094322;28;20024;-63
2023/09/11 07:48:31;;;;;;;7.40;6.70;;;28.10;92.90;;;;;;5093520;28;20105;-63
2023/09/11 07:50:57;;;;;;;8.10;7.03;;;28.20;92.40;;;;;;5094744;28;20396;-63
2023/09/11 07:53:23;;;;;;;9.63;7.45;;;28.20;91.50;;;;;;5094583;28;20056;-63
2023/09/11 07:55:48;;;;;;;6.97;6.35;;;28.50;91.40;;;;;;5095031;28;20457;-62
2023/09/11 07:58:16;;;;;;;8.93;6.55;;;28.90;90.70;;;;;;5093958;28;20481;-62
2023/09/11 08:00:42;;;;;;;7.50;6.90;;;29.10;89.80;;;;;;5075810;28;20024;-65
2023/09/11 08:03:07;;;;;;;8.98;7.18;;;29.40;87.40;;;;;;5094101;28;20034;-62
2023/09/11 08:05:33;;;;;;;8.98;6.50;;;29.40;86.80;;;;;;5094464;28;20492;-63
2023/09/11 08:08:01;;;;;;;7.82;6.53;;;29.50;85.80;;;;;;5094099;28;20020;-62
2023/09/11 08:10:27;;;;;;;7.45;6.78;;;30.00;85.50;;;;;;5075955;28;20024;-63
2023/09/11 08:12:53;;;;;;;8.10;6.35;;;29.80;82.90;;;;;;5075938;28;20075;-63
2023/09/11 08:15:19;;;;;;;8.38;6.20;;;29.90;82.80;;;;;;5093954;28;20485;-63
2023/09/11 08:17:44;;;;;;;9.07;6.80;;;30.10;81.30;;;;;;5093978;28;20024;-63
2023/09/11 08:20:10;;;;;;;9.05;6.72;;;30.20;80.60;;;;;;5075831;28;20024;-63
2023/09/11 08:22:37;;;;;;;8.07;6.22;;;30.40;79.50;;;;;;5093880;28;20092;-63
2023/09/11 08:25:03;;;;;;;6.82;6.13;;;30.50;78.90;;;;;;5093813;28;20028;-63
2023/09/11 08:27:28;;;;;;;6.60;5.97;;;30.50;78.10;;;;;;5093603;28;20142;-63
2023/09/11 08:29:55;;;;;;;8.90;6.10;;;30.60;76.50;;;;;;5093503;28;20025;-65
2023/09/11 08:32:21;;;;;;;7.68;5.60;;;30.90;75.80;;;;;;5092549;28;20028;-64
2023/09/11 08:34:47;;;;;;;8.60;6.38;;;31.20;74.50;;;;;;5093836;28;20031;-64
2023/09/11 08:37:12;;;;;;;6.60;5.72;;;31.20;73.90;;;;;;5075856;28;20081;-63
2023/09/11 08:39:38;;;;;;;7.68;6.38;;;31.40;73.60;;;;;;5093732;28;20103;-63
2023/09/11 08:42:04;;;;;;;6.90;5.65;;;31.40;71.40;;;;;;5097001;28;20063;-64
2023/09/11 08:44:30;;;;;;;6.80;6.00;;;31.20;72.00;;;;;;5097565;28;20032;-63
2023/09/11 08:47:00;;;;;;;6.78;6.07;;;31.50;71.10;;;;;;5097849;28;20035;-66
2023/09/11 08:49:32;;;;;;;6.32;5.72;;;31.70;71.20;;;;;;5098120;28;20028;-64
2023/09/11 08:52:02;;;;;;;13.55;7.30;;;32.10;69.80;;;;;;5079901;28;20040;-65
2023/09/11 08:54:35;;;;;;;9.35;6.03;;;32.70;68.20;;;;;;5097845;28;20484;-64
2023/09/11 08:57:02;;;;;;;5.65;5.25;;;33.00;65.90;;;;;;5098456;28;20027;-65
2023/09/11 08:59:29;;;;;;;12.10;6.70;;;33.30;64.90;;;;;;5079530;28;20445;-65
2023/09/11 09:01:57;;;;;;;5.63;5.22;;;33.50;65.30;;;;;;5079771;28;20036;-65
2023/09/11 09:04:25;;;;;;;5.80;5.40;;;33.80;63.40;;;;;;5079509;28;20043;-65
2023/09/11 09:06:51;;;;;;;6.32;5.43;;;34.40;62.00;;;;;;5097566;28;20083;-65
2023/09/11 09:09:18;;;;;;;6.43;5.50;;;34.80;61.20;;;;;;5097642;28;20473;-65
2023/09/11 09:11:48;;;;;;;8.98;5.53;;;35.50;60.60;;;;;;5097179;28;20024;-66
2023/09/11 09:14:21;;;;;;;5.72;5.18;;;36.10;58.50;;;;;;5097252;28;20039;-65
2023/09/11 09:16:47;;;;;;;5.32;4.82;;;36.50;55.60;;;;;;5079071;28;20039;-65
2023/09/11 09:19:13;;;;;;;7.13;5.50;;;36.60;54.90;;;;;;5097155;28;20024;-66
2023/09/11 09:22:07;;;;;;;6.45;4.75;;;36.90;54.40;;;;;;5097666;28;20024;-66
2023/09/11 09:24:33;;;;;;;6.03;5.28;;;36.40;53.60;;;;;;5078999;28;20534;-65
2023/09/11 09:27:01;;;;;;;6.93;4.97;;;36.20;53.10;;;;;;5096887;28;20479;-66
2023/09/11 09:29:32;;;;;;;;;;;35.90;53.10;;;;;;5097339;28;20106;-65
2023/09/11 09:32:00;;;;;;;5.22;4.72;;;36.10;52.00;;;;;;5096658;28;19911;-65
2023/09/11 09:34:26;;;;;;;9.63;5.88;;;36.30;51.30;;;;;;5078616;28;20028;-66
2023/09/11 09:36:53;;;;;;;5.22;4.85;;;36.60;51.30;;;;;;5079160;28;20024;-66
2023/09/11 09:39:19;;;;;;;5.85;4.63;;;37.00;50.50;;;;;;5096646;28;20458;-66
2023/09/11 09:42:01;;;;;;;5.90;4.63;;;36.90;49.10;;;;;;5078976;28;20082;-66
2023/09/11 09:44:39;;;;;;;5.22;4.60;;;36.90;50.70;;;;;;5079216;28;20032;-66
2023/09/11 09:47:20;;;;;;;5.25;4.68;;;37.10;49.70;;;;;;5097067;28;20432;-66
2023/09/11 09:49:47;;;;;;;5.47;5.05;;;36.90;49.20;;;;;;5096506;28;20470;-66
2023/09/11 09:52:14;;;;;;;6.03;4.82;;;37.20;49.50;;;;;;5095336;28;20044;-66
2023/09/11 09:54:55;;;;;;;5.15;3.95;;;37.10;48.70;;;;;;5078052;28;20035;-66
2023/09/11 09:57:24;;;;;;;5.18;4.68;;;37.20;48.60;;;;;;5096880;28;20028;-65
2023/09/11 09:59:58;;;;;;;5.47;5.07;;;37.10;49.20;;;;;;5096476;28;20024;-65
2023/09/11 10:02:32;;;;;;;5.28;4.38;;;37.30;48.90;;;;;;5096716;28;20024;-65
2023/09/11 10:05:02;;;;;;;4.93;4.43;;;36.90;48.30;;;;;;5096212;28;20381;-65
2023/09/11 10:07:39;;;;;;;4.95;4.43;;;36.90;48.70;;;;;;5078135;28;20024;-66
2023/09/11 10:10:22;;;;;;;5.03;4.53;;;37.30;47.90;;;;;;5096668;28;20020;-66
2023/09/11 10:12:52;;;;;;;4.78;4.40;;;37.70;48.80;;;;;;5096466;28;20024;-66
2023/09/11 10:15:20;;;;;;;8.35;4.65;;;38.10;47.30;;;;;;5096232;28;20036;-67
2023/09/11 10:17:45;;;;;;;;;;;38.40;46.80;;;;;;5078359;28;20027;-64
2023/09/11 10:20:12;;;;;;;7.05;4.95;;;38.40;45.70;;;;;;5095929;28;19904;-64
2023/09/11 10:22:38;;;;;;;6.20;4.60;;;38.40;45.80;;;;;;5096259;28;20024;-64
2023/09/11 10:25:03;;;;;;;4.80;4.30;;;38.40;45.60;;;;;;5095930;28;20535;-64
2023/09/11 10:27:30;;;;;;;8.43;4.78;;;38.20;45.10;;;;;;5077879;28;20059;-64
2023/09/11 10:30:03;;;;;;;5.20;4.72;;;38.20;45.20;;;;;;5096208;28;20055;-64
2023/09/11 10:32:45;;;;;;;4.53;4.22;;;38.40;45.60;;;;;;5096044;28;20028;-64
2023/09/11 10:35:11;;;;;;;4.85;4.45;;;38.90;44.80;;;;;;5096232;28;20028;-64
2023/09/11 10:37:40;;;;;;;5.13;4.72;;;38.40;44.80;;;;;;5095725;28;20050;-64
2023/09/11 10:40:07;;;;;;;5.10;4.60;;;38.60;45.00;;;;;;5095370;28;20504;-65
2023/09/11 10:42:33;;;;;;;7.32;4.75;;;38.60;44.80;;;;;;5077997;28;20111;-64
2023/09/11 10:44:59;;;;;;;5.88;5.28;;;38.90;44.30;;;;;;5095860;28;20031;-66
2023/09/11 10:47:27;;;;;;;6.55;4.82;;;39.10;44.50;;;;;;5095844;28;20039;-64
2023/09/11 10:49:57;;;;;;;8.50;5.78;;;39.30;44.20;;;;;;5095451;28;20024;-67
2023/09/11 10:52:24;;;;;;;10.02;5.25;;;39.60;43.60;;;;;;5077171;28;20051;-67
2023/09/11 10:54:50;;;;;;;;;;;39.60;42.90;;;;;;5077800;28;20127;-68
2023/09/11 10:57:16;;;;;;;8.85;4.88;;;39.10;43.40;;;;;;5077174;28;20390;-65
2023/09/11 10:59:42;;;;;;;6.55;4.97;;;39.40;43.40;;;;;;5094268;28;20355;-65
2023/09/11 11:02:08;;;;;;;9.80;5.15;;;39.30;42.60;;;;;;5095531;28;20020;-65
2023/09/11 11:04:34;;;;;;;5.50;5.10;;;38.60;43.80;;;;;;5095024;28;20204;-64
2023/09/11 11:07:01;;;;;;;5.50;5.03;;;38.30;43.60;;;;;;5077125;28;20024;-64
2023/09/11 11:09:36;;;;;;;6.82;5.78;;;38.00;44.10;;;;;;5077375;28;20484;-65
2023/09/11 11:12:02;;;;;;;6.70;5.47;;;38.40;43.80;;;;;;5076961;28;20028;-65
2023/09/11 11:14:28;;;;;;;7.33;5.20;;;38.70;43.50;;;;;;5093584;28;20028;-65
2023/09/11 11:17:21;;;;;;;5.75;5.25;;;38.80;42.90;;;;;;5076776;28;20047;-65
2023/09/11 11:20:00;;;;;;;11.35;5.53;;;38.60;42.50;;;;;;5090384;28;20095;-65
2023/09/11 11:22:31;;;;;;;8.68;5.60;;;38.70;42.80;;;;;;5077078;28;20032;-65
2023/09/11 11:24:58;;;;;;;7.85;5.22;;;39.00;42.20;;;;;;5094398;28;20056;-65
2023/09/11 11:27:24;;;;;;;6.13;5.28;;;39.20;42.20;;;;;;5094904;28;20051;-65
2023/09/11 11:29:52;;;;;;;6.20;5.60;;;39.70;41.80;;;;;;5075783;28;20070;-65
2023/09/11 11:32:21;;;;;;;9.20;6.03;;;39.80;40.90;;;;;;5074677;28;20028;-66
2023/09/11 11:34:50;;;;;;;6.10;5.47;;;38.50;42.00;;;;;;5056638;28;20039;-64
2023/09/11 11:37:20;;;;;;;5.68;5.22;;;38.80;41.90;;;;;;5075684;28;20078;-65
2023/09/11 11:39:46;;;;;;;6.35;5.22;;;39.50;41.40;;;;;;5080198;28;20065;-65
2023/09/11 11:42:13;;;;;;;7.10;5.25;;;40.20;40.30;;;;;;5095864;28;20016;-64
2023/09/11 11:44:39;;;;;;;10.27;6.22;;;40.00;39.60;;;;;;5095907;28;20134;-65
2023/09/11 11:47:07;;;;;;;7.47;5.70;;;40.40;39.70;;;;;;5077150;28;20036;-67
2023/09/11 11:49:34;;;;;;;7.55;5.50;;;40.80;39.60;;;;;;5094630;28;20031;-65
2023/09/11 11:52:03;;;;;;;8.07;5.90;;;40.90;39.20;;;;;;5094610;28;20063;-65
2023/09/11 11:54:29;;;;;;;7.38;5.72;;;41.00;39.10;;;;;;5076936;28;20032;-65
2023/09/11 11:57:03;;;;;;;6.03;5.50;;;41.30;38.20;;;;;;5090429;28;20016;-66
2023/09/11 11:59:38;;;;;;;6.15;5.63;;;41.60;38.40;;;;;;5079929;28;20032;-67
2023/09/11 12:02:04;;;;;;;8.07;5.30;;;41.30;38.70;;;;;;5062213;28;20151;-65
2023/09/11 12:04:30;;;;;;;10.80;5.63;;;41.00;38.40;;;;;;5081850;28;20024;-65
2023/09/11 12:07:02;;;;;;;9.43;5.68;;;40.80;38.30;;;;;;5077901;28;20035;-68
2023/09/11 12:09:27;;;;;;;6.75;5.88;;;41.20;37.80;;;;;;5056503;28;20024;-65
2023/09/11 12:11:53;;;;;;;6.93;6.07;;;41.20;37.30;;;;;;5073703;28;20050;-65
2023/09/11 12:14:19;;;;;;;9.23;6.28;;;40.90;38.20;;;;;;5084516;28;20028;-65
2023/09/11 12:16:45;;;;;;;13.05;6.13;;;40.90;38.20;;;;;;5075324;28;20020;-65
2023/09/11 12:19:11;;;;;;;6.30;5.70;;;40.40;38.30;;;;;;5094111;28;20023;-66
2023/09/11 12:21:37;;;;;;;12.23;6.25;;;40.80;38.00;;;;;;5060863;28;20033;-66
2023/09/11 12:24:08;;;;;;;7.60;6.50;;;40.70;37.70;;;;;;5073293;28;20036;-64
2023/09/11 12:26:35;;;;;;;8.70;6.32;;;40.70;37.70;;;;;;5073912;28;20032;-64
2023/09/11 12:29:03;;;;;;;6.18;5.68;;;40.50;37.70;;;;;;5055767;28;20078;-65
2023/09/11 12:31:29;;;;;;;11.70;6.22;;;40.50;37.80;;;;;;5073758;28;20409;-64
2023/09/11 12:33:58;;;;;;;8.63;5.93;;;39.90;38.20;;;;;;5073258;28;20056;-65
2023/09/11 12:36:24;;;;;;;11.38;6.13;;;39.90;38.40;;;;;;5055575;28;20028;-66
2023/09/11 12:38:50;;;;;;;7.37;5.73;;;39.70;38.50;;;;;;5073207;28;20025;-67